createdAt,value
2018-04-28T00:02:22.421Z,16.40
2018-04-28T00:04:51.465Z,16.50
2018-04-28T00:07:20.047Z,16.50
2018-04-28T00:09:49.302Z,16.40
2018-04-28T00:12:17.586Z,16.50
2018-04-28T00:14:45.895Z,16.50
2018-04-28T00:17:15.757Z,16.50
2018-04-28T00:19:46.483Z,16.60
2018-04-28T00:22:32.232Z,16.60
2018-04-28T00:25:15.398Z,16.50
2018-04-28T00:27:58.048Z,16.50
2018-04-28T00:30:27.790Z,16.40
2018-04-28T00:32:57.879Z,16.40
2018-04-28T00:35:28.731Z,16.20
2018-04-28T00:37:57.823Z,16.20
2018-04-28T00:43:27.989Z,16.20
2018-04-28T00:46:01.396Z,15.70
2018-04-28T00:48:47.301Z,15.80
2018-04-28T00:51:21.429Z,15.90
2018-04-28T00:53:49.696Z,15.90
2018-04-28T00:56:27.175Z,15.90
2018-04-28T00:58:57.480Z,16.00
2018-04-28T01:01:32.471Z,16.10
2018-04-28T01:04:22.930Z,16.10
2018-04-28T01:06:51.231Z,16.00
2018-04-28T01:09:21.487Z,15.90
2018-04-28T01:11:49.767Z,15.90
2018-04-28T01:14:39.516Z,15.60
2018-04-28T01:17:27.143Z,15.20
2018-04-28T01:19:58.920Z,15.20
2018-04-28T01:22:28.699Z,15.20
2018-04-28T01:25:01.306Z,15.20
2018-04-28T01:27:35.926Z,15.10
2018-04-28T01:30:13.871Z,15.10
2018-04-28T01:33:07.671Z,14.90
2018-04-28T01:35:43.210Z,14.70
2018-04-28T01:38:11.508Z,14.70
2018-04-28T01:40:41.376Z,14.80
2018-04-28T01:43:14.183Z,14.80
2018-04-28T01:45:51.250Z,14.90
2018-04-28T01:48:25.080Z,15.00
2018-04-28T01:50:57.979Z,15.10
2018-04-28T01:53:33.748Z,14.90
2018-04-28T01:56:05.786Z,14.90
2018-04-28T01:58:45.478Z,14.50
2018-04-28T02:01:20.623Z,14.40
2018-04-28T02:04:02.036Z,14.60
2018-04-28T02:07:03.709Z,14.50
2018-04-28T02:09:42.676Z,14.50
2018-04-28T02:12:18.903Z,14.50
2018-04-28T02:15:06.486Z,14.70
2018-04-28T02:17:45.599Z,14.70
2018-04-28T02:20:14.692Z,14.70
2018-04-28T02:25:45.587Z,14.10
2018-04-28T02:28:33.255Z,14.40
2018-04-28T02:31:04.386Z,14.40
2018-04-28T02:33:48.368Z,14.50
2018-04-28T02:36:28.366Z,14.60
2018-04-28T02:38:59.167Z,14.60
2018-04-28T02:41:31.098Z,14.60
2018-04-28T02:44:01.408Z,14.40
2018-04-28T02:46:49.220Z,14.40
2018-04-28T02:49:24.852Z,14.60
2018-04-28T02:51:53.129Z,14.70
2018-04-28T02:54:35.159Z,14.80
2018-04-28T02:57:07.683Z,15.10
2018-04-28T02:59:47.037Z,15.10
2018-04-28T03:02:32.855Z,15.10
2018-04-28T03:05:21.370Z,15.00
2018-04-28T03:08:00.679Z,14.80
2018-04-28T03:10:44.552Z,14.70
2018-04-28T03:13:43.417Z,14.50
2018-04-28T03:16:34.383Z,14.30
2018-04-28T03:19:02.729Z,14.20
2018-04-28T03:21:33.504Z,14.10
2018-04-28T03:24:04.991Z,14.10
2018-04-28T03:26:34.315Z,14.10
2018-04-28T03:29:18.268Z,14.40
2018-04-28T03:31:50.239Z,14.40
2018-04-28T03:34:29.611Z,14.40
2018-04-28T03:37:18.781Z,14.30
2018-04-28T03:40:05.631Z,14.20
2018-04-28T03:42:54.189Z,14.10
2018-04-28T03:45:23.247Z,14.30
2018-04-28T03:48:12.187Z,14.30
2018-04-28T03:50:50.631Z,14.40
2018-04-28T03:53:20.633Z,14.60
2018-04-28T03:55:48.939Z,14.70
2018-04-28T03:58:29.340Z,14.70
2018-04-28T04:04:18.872Z,14.50
2018-04-28T04:06:52.925Z,13.90
2018-04-28T04:09:23.023Z,13.90
2018-04-28T04:12:02.970Z,13.90
2018-04-28T04:14:36.433Z,14.00
2018-04-28T04:17:27.280Z,14.10
2018-04-28T04:20:24.197Z,14.30
2018-04-28T04:23:09.315Z,14.40
2018-04-28T04:26:06.760Z,14.60
2018-04-28T04:28:50.160Z,14.70
2018-04-28T04:31:35.029Z,14.70
2018-04-28T04:34:12.985Z,14.70
2018-04-28T04:36:51.084Z,14.50
2018-04-28T04:39:47.179Z,14.20
2018-04-28T04:42:31.890Z,13.90
2018-04-28T04:45:06.687Z,13.80
2018-04-28T04:47:38.853Z,14.00
2018-04-28T04:50:24.588Z,14.00
2018-04-28T04:53:09.987Z,14.00
2018-04-28T04:55:57.839Z,14.10
2018-04-28T04:58:33.576Z,13.90
2018-04-28T05:01:08.687Z,13.90
2018-04-28T05:04:06.768Z,13.80
2018-04-28T05:06:41.815Z,13.80
2018-04-28T05:09:17.805Z,13.70
2018-04-28T05:12:13.678Z,13.70
2018-04-28T05:15:00.555Z,13.70
2018-04-28T05:17:37.508Z,13.70
2018-04-28T05:20:26.609Z,13.70
2018-04-28T05:23:02.595Z,13.80
2018-04-28T05:25:57.813Z,14.00
2018-04-28T05:28:54.570Z,13.90
2018-04-28T05:34:43.215Z,13.70
2018-04-28T05:37:30.015Z,13.70
2018-04-28T05:40:20.005Z,14.00
2018-04-28T05:43:01.270Z,14.10
2018-04-28T05:45:52.274Z,14.10
2018-04-28T05:48:26.738Z,14.20
2018-04-28T05:51:03.365Z,14.40
2018-04-28T05:53:58.451Z,14.30
2018-04-28T05:56:50.396Z,14.50
2018-04-28T05:59:52.258Z,14.60
2018-04-28T06:02:52.343Z,14.80
2018-04-28T06:05:44.113Z,15.10
2018-04-28T06:08:23.673Z,15.10
2018-04-28T06:11:15.681Z,15.20
2018-04-28T06:13:55.820Z,15.40
2018-04-28T06:16:48.721Z,15.50
2018-04-28T06:19:28.854Z,15.60
2018-04-28T06:21:57.165Z,15.60
2018-04-28T06:24:25.497Z,15.60
2018-04-28T06:26:53.758Z,15.70
2018-04-28T06:29:22.842Z,15.70
2018-04-28T06:31:51.126Z,15.60
2018-04-28T06:34:19.500Z,15.70
2018-04-28T06:36:47.769Z,15.80
2018-04-28T06:39:16.084Z,15.90
2018-04-28T06:41:44.364Z,15.90
2018-04-28T06:44:12.656Z,16.00
2018-04-28T06:46:40.966Z,16.10
2018-04-28T06:49:10.093Z,16.30
2018-04-28T06:51:38.374Z,16.30
2018-04-28T06:54:06.682Z,16.50
2018-04-28T06:56:34.970Z,16.70
2018-04-28T06:59:04.022Z,16.90
2018-04-28T07:01:32.317Z,16.90
2018-04-28T07:04:00.647Z,17.00
2018-04-28T07:06:28.947Z,17.10
2018-04-28T07:08:57.283Z,17.30
2018-04-28T07:11:26.405Z,17.70
2018-04-28T07:13:54.686Z,17.70
2018-04-28T07:16:22.973Z,17.80
2018-04-28T07:18:51.278Z,17.90
2018-04-28T07:21:19.556Z,18.10
2018-04-28T07:23:47.861Z,18.30
2018-04-28T07:26:16.195Z,18.40
2018-04-28T07:28:44.497Z,18.40
2018-04-28T07:31:13.597Z,18.50
2018-04-28T07:33:42.681Z,18.60
2018-04-28T07:36:11.888Z,18.70
2018-04-28T07:38:40.935Z,18.90
2018-04-28T07:41:09.232Z,18.80
2018-04-28T07:43:37.564Z,18.90
2018-04-28T07:46:06.027Z,18.90
2018-04-28T07:48:34.331Z,18.90
2018-04-28T07:51:02.643Z,19.00
2018-04-28T07:53:30.944Z,18.90
2018-04-28T07:56:00.024Z,18.60
2018-04-28T07:58:28.323Z,18.60
2018-04-28T08:00:56.627Z,18.60
2018-04-28T08:03:25.000Z,18.30
2018-04-28T08:09:20.476Z,18.30
2018-04-28T08:18:23.822Z,18.30
2018-04-28T08:21:13.823Z,18.30
2018-04-28T08:26:49.771Z,18.10
2018-04-28T08:29:18.156Z,18.00
2018-04-28T08:31:46.456Z,18.10
2018-04-28T08:34:16.418Z,18.00
2018-04-28T08:36:44.793Z,17.90
2018-04-28T08:39:13.157Z,18.00
2018-04-28T08:41:42.262Z,18.30
2018-04-28T08:44:11.785Z,18.30
2018-04-28T08:46:40.110Z,18.30
2018-04-28T08:49:08.472Z,18.60
2018-04-28T08:51:37.654Z,18.90
2018-04-28T08:54:06.029Z,19.00
2018-04-28T08:56:34.473Z,19.00
2018-04-28T08:59:02.937Z,19.30
2018-04-28T09:01:31.311Z,19.40
2018-04-28T09:21:31.046Z,20.20
2018-04-28T09:23:59.461Z,20.30
2018-04-28T09:26:28.106Z,20.20
2018-04-28T09:28:57.297Z,20.10
2018-04-28T09:31:25.691Z,20.10
2018-04-28T09:33:54.104Z,20.00
2018-04-28T09:36:22.488Z,19.80
2018-04-28T09:38:50.846Z,20.00
2018-04-28T09:41:22.273Z,20.10
2018-04-28T09:43:50.658Z,20.10
2018-04-28T09:46:21.159Z,20.20
2018-04-28T09:48:49.885Z,20.10
2018-04-28T09:51:18.202Z,20.00
2018-04-28T09:53:46.679Z,20.10
2018-04-28T09:56:15.035Z,20.00
2018-04-28T09:58:43.606Z,19.80
2018-04-28T10:01:17.614Z,19.80
2018-04-28T10:03:45.994Z,19.80
2018-04-28T10:06:14.393Z,19.80
2018-04-28T10:08:42.774Z,19.70
2018-04-28T10:11:11.136Z,19.70
2018-04-28T10:13:40.267Z,19.60
2018-04-28T10:16:08.631Z,19.60
2018-04-28T10:18:38.036Z,19.60
2018-04-28T10:21:06.396Z,19.60
2018-04-28T10:23:34.731Z,19.60
2018-04-28T10:26:05.776Z,19.60
2018-04-28T10:28:34.171Z,19.50
2018-04-28T10:31:02.559Z,19.50
2018-04-28T10:33:30.867Z,19.40
2018-04-28T10:35:59.224Z,19.60
2018-04-28T10:38:27.527Z,19.70
2018-04-28T10:40:55.918Z,19.70
2018-04-28T10:43:24.271Z,19.70
2018-04-28T10:45:53.392Z,19.90
2018-04-28T10:48:21.751Z,19.90
2018-04-28T10:50:50.127Z,20.00
2018-04-28T10:53:18.495Z,20.10
2018-04-28T10:55:46.953Z,20.10
2018-04-28T10:58:15.337Z,20.00
2018-04-28T11:00:43.710Z,19.90
2018-04-28T11:03:12.518Z,19.80
2018-04-28T11:05:40.855Z,19.80
2018-04-28T11:08:09.172Z,19.90
2018-04-28T11:10:37.516Z,19.80
2018-04-28T11:13:05.931Z,19.70
2018-04-28T11:15:34.341Z,19.60
2018-04-28T11:18:03.825Z,19.70
2018-04-28T11:20:33.078Z,19.60
2018-04-28T11:23:04.232Z,19.80
2018-04-28T11:28:30.194Z,19.80
2018-04-28T11:30:58.509Z,19.60
2018-04-28T11:33:26.919Z,19.50
2018-04-28T11:35:55.603Z,19.50
2018-04-28T11:38:23.963Z,19.60
2018-04-28T11:40:52.279Z,19.70
2018-04-28T11:43:20.600Z,19.90
2018-04-28T11:45:49.079Z,20.00
2018-04-28T11:48:18.463Z,20.20
2018-04-28T11:50:46.835Z,20.30
2018-04-28T11:53:15.246Z,20.30
2018-04-28T11:55:43.599Z,20.30
2018-04-28T11:58:12.205Z,20.50
2018-04-28T12:00:40.647Z,20.60
2018-04-28T12:03:09.011Z,20.70
2018-04-28T12:05:37.317Z,20.90
2018-04-28T12:08:05.672Z,21.10
2018-04-28T12:10:34.048Z,21.30
2018-04-28T12:13:02.472Z,21.60
2018-04-28T12:15:30.855Z,21.70
2018-04-28T12:18:00.271Z,21.40
2018-04-28T12:20:29.448Z,21.40
2018-04-28T12:22:58.992Z,21.40
2018-04-28T12:31:27.753Z,21.40
2018-04-28T12:33:56.889Z,21.70
2018-04-28T12:36:25.296Z,21.70
2018-04-28T12:38:54.452Z,21.60
2018-04-28T12:41:22.812Z,21.60
2018-04-28T12:43:51.444Z,21.70
2018-04-28T12:46:19.821Z,21.70
2018-04-28T12:48:48.199Z,21.70
2018-04-28T12:51:16.583Z,21.70
2018-04-28T12:53:45.723Z,21.70
2018-04-28T12:56:14.104Z,21.70
2018-04-28T12:58:42.512Z,21.90
2018-04-28T13:01:10.930Z,22.00
2018-04-28T13:03:39.313Z,22.10
2018-04-28T13:06:07.776Z,22.30
2018-04-28T13:08:37.022Z,22.30
2018-04-28T13:11:05.436Z,22.30
2018-04-28T13:13:35.705Z,22.40
2018-04-28T13:16:04.186Z,22.30
2018-04-28T13:18:32.687Z,22.30
2018-04-28T13:21:01.083Z,22.40
2018-04-28T13:23:29.454Z,22.50
2018-04-28T13:44:00.257Z,23.00
2018-04-28T13:46:29.366Z,23.40
2018-04-28T13:48:58.500Z,23.50
2018-04-28T13:51:26.851Z,23.40
2018-04-28T13:53:55.263Z,23.50
2018-04-28T13:56:24.400Z,23.50
2018-04-28T13:58:52.749Z,23.50
2018-04-28T14:01:21.136Z,23.70
2018-04-28T14:03:49.535Z,23.70
2018-04-28T14:30:20.897Z,24.20
2018-04-28T14:32:55.289Z,24.20
2018-04-28T14:35:30.307Z,23.80
2018-04-28T14:38:04.603Z,23.80
2018-04-28T14:40:39.002Z,23.80
2018-04-28T14:43:13.411Z,23.80
2018-04-28T14:45:48.201Z,23.70
2018-04-28T14:48:23.315Z,23.60
2018-04-28T14:50:57.970Z,23.60
2018-04-28T14:53:32.324Z,23.60
2018-04-28T15:35:11.432Z,23.30
2018-04-28T15:37:45.693Z,23.40
2018-04-28T15:40:20.149Z,23.40
2018-04-28T15:42:55.248Z,23.30
2018-04-28T15:45:29.941Z,23.30
2018-04-28T15:48:04.392Z,23.30
2018-04-28T15:50:42.750Z,23.20
2018-04-28T15:53:17.045Z,23.10
2018-04-28T15:55:51.459Z,23.30
2018-04-28T15:58:25.859Z,23.30
2018-04-28T16:01:00.307Z,23.30
2018-04-28T16:03:35.391Z,23.20
2018-04-28T16:06:09.706Z,23.20
2018-04-28T16:08:44.198Z,23.10
2018-04-28T16:11:19.621Z,23.10
2018-04-28T16:13:54.071Z,23.10
2018-04-28T16:16:29.277Z,23.00
2018-04-28T16:19:05.597Z,23.00
2018-04-28T16:21:40.008Z,23.00
2018-04-28T16:24:08.401Z,23.00
2018-04-28T16:26:36.868Z,23.00
2018-04-28T16:47:07.599Z,22.60
2018-04-28T16:49:36.032Z,22.50
2018-04-28T16:52:04.415Z,22.10
2018-04-28T16:57:47.217Z,22.20
2018-04-28T17:00:15.621Z,22.10
2018-04-28T17:02:44.777Z,22.00
2018-04-28T17:05:13.149Z,22.00
2018-04-28T17:07:41.501Z,22.00
2018-04-28T17:10:09.865Z,21.90
2018-04-28T17:12:38.342Z,21.90
2018-04-28T17:15:06.806Z,21.90
2018-04-28T17:17:47.095Z,21.80
2018-04-28T17:20:15.975Z,21.70
2018-04-28T17:22:44.354Z,21.70
2018-04-28T17:25:12.751Z,21.70
2018-04-28T17:27:43.135Z,21.60
2018-04-28T17:30:12.228Z,21.60
2018-04-28T17:32:40.577Z,21.60
2018-04-28T17:35:08.965Z,21.50
2018-04-28T17:37:37.352Z,21.50
2018-04-28T17:40:05.712Z,21.50
2018-04-28T17:42:34.076Z,21.40
2018-04-28T17:48:01.639Z,21.40
2018-04-28T17:50:30.034Z,21.40
2018-04-28T17:52:58.385Z,21.40
2018-04-28T17:55:26.767Z,21.30
2018-04-28T17:57:55.111Z,21.30
2018-04-28T18:00:23.471Z,21.20
2018-04-28T18:02:51.952Z,21.20
2018-04-28T18:05:20.474Z,21.20
2018-04-28T18:07:55.683Z,21.10
2018-04-28T18:10:30.132Z,21.10
2018-04-28T18:13:04.494Z,21.10
2018-04-28T18:15:38.803Z,21.10
2018-04-28T18:18:13.134Z,21.00
2018-04-28T18:20:48.135Z,20.90
2018-04-28T18:23:17.522Z,20.90
2018-04-28T18:25:45.874Z,20.90
2018-04-28T18:28:14.399Z,20.80
2018-04-28T18:30:42.753Z,20.80
2018-04-28T18:33:11.128Z,20.80
2018-04-28T18:35:40.241Z,20.70
2018-04-28T18:38:08.648Z,20.70
2018-04-28T18:40:37.038Z,20.60
2018-04-28T18:43:05.402Z,20.50
2018-04-28T18:45:33.717Z,20.50
2018-04-28T18:48:02.883Z,20.30
2018-04-28T18:50:31.160Z,20.30
2018-04-28T18:52:59.522Z,20.30
2018-04-28T18:55:28.623Z,20.30
2018-04-28T18:57:57.781Z,20.20
2018-04-28T19:00:26.132Z,20.20
2018-04-28T19:03:01.190Z,20.30
2018-04-28T19:05:30.328Z,20.10
2018-04-28T19:07:58.979Z,20.10
2018-04-28T19:10:27.375Z,20.10
2018-04-28T19:12:55.742Z,20.10
2018-04-28T19:15:24.121Z,20.10
2018-04-28T19:17:52.482Z,20.10
2018-04-28T19:20:21.625Z,19.80
2018-04-28T19:22:49.976Z,19.80
2018-04-28T19:25:18.860Z,19.60
2018-04-28T19:27:47.227Z,19.70
2018-04-28T19:30:15.669Z,19.50
2018-04-28T19:32:44.055Z,19.40
2018-04-28T19:35:12.414Z,19.30
2018-04-28T19:37:40.821Z,19.20
2018-04-28T19:40:09.192Z,19.10
2018-04-28T19:42:37.591Z,19.10
2018-04-28T19:45:05.995Z,19.10
2018-04-28T19:47:34.383Z,19.10
2018-04-28T19:50:02.783Z,19.10
2018-04-28T19:52:31.139Z,19.10
2018-04-28T19:54:59.514Z,19.00
2018-04-28T19:57:27.903Z,19.00
2018-04-28T19:59:56.260Z,18.90
2018-04-28T20:02:48.975Z,18.90
2018-04-28T20:05:17.379Z,18.90
2018-04-28T20:07:45.759Z,18.80
2018-04-28T20:10:14.118Z,18.90
2018-04-28T20:12:47.227Z,19.00
2018-04-28T20:15:15.591Z,18.90
2018-04-28T20:17:44.013Z,18.90
2018-04-28T20:20:13.152Z,18.80
2018-04-28T20:22:56.484Z,18.80
2018-04-28T20:25:24.893Z,18.80
2018-04-28T20:27:53.266Z,18.60
2018-04-28T20:30:21.697Z,18.50
2018-04-28T20:32:50.119Z,18.40
2018-04-28T20:35:18.679Z,18.30
2018-04-28T20:37:47.398Z,18.30
2018-04-28T20:40:18.067Z,18.30
2018-04-28T20:42:47.281Z,18.30
2018-04-28T20:45:16.476Z,18.40
2018-04-28T20:47:44.998Z,18.30
2018-04-28T20:50:13.389Z,18.40
2018-04-28T20:52:41.987Z,18.30
2018-04-28T20:55:10.451Z,18.30
2018-04-28T20:57:44.919Z,18.20
2018-04-28T21:21:21.511Z,18.30
2018-04-28T21:23:55.945Z,18.20
2018-04-28T21:44:32.413Z,17.80
2018-04-28T21:47:07.404Z,17.80
2018-04-28T21:49:41.789Z,17.70
2018-04-28T21:52:16.172Z,17.70
2018-04-28T21:54:50.801Z,17.80
2018-04-28T22:03:55.520Z,17.40
2018-04-28T22:06:30.325Z,17.10
2018-04-28T22:09:06.714Z,17.10
2018-04-28T22:11:41.333Z,17.10
2018-04-28T22:14:16.429Z,16.90
2018-04-28T22:16:50.827Z,16.80
2018-04-28T22:19:25.067Z,16.70
2018-04-28T22:21:59.328Z,16.70
2018-04-28T22:24:33.639Z,16.80
2018-04-28T22:33:09.604Z,16.70
2018-04-28T22:35:43.793Z,16.70
2018-04-28T22:38:18.105Z,16.60
2018-04-28T22:41:04.687Z,16.60
2018-04-28T22:43:39.629Z,16.50
2018-04-28T22:46:14.043Z,16.80
2018-04-28T22:48:48.283Z,16.90
2018-04-28T22:51:22.707Z,16.70
2018-04-28T22:53:57.764Z,16.70
2018-04-28T22:56:32.960Z,16.70
2018-04-28T22:59:07.259Z,16.60
2018-04-28T23:01:42.225Z,16.50
2018-04-28T23:04:16.648Z,16.50
2018-04-28T23:06:50.920Z,16.40
2018-04-28T23:09:25.313Z,16.30
2018-04-28T23:11:59.760Z,16.30
2018-04-28T23:14:34.023Z,16.20
2018-04-28T23:17:08.456Z,16.20
2018-04-28T23:19:42.676Z,16.20
2018-04-28T23:22:16.933Z,16.30
2018-04-28T23:42:53.356Z,16.20
2018-04-28T23:45:27.659Z,16.30
2018-04-28T23:48:02.074Z,16.30
2018-04-28T23:50:36.450Z,16.40
2018-04-28T23:53:10.739Z,16.40
2018-04-28T23:55:45.912Z,16.50
2018-04-28T23:58:20.993Z,16.40
